Terminal Aerodrome Forecast
Issued by NWS

Home | Current Version | Previous Version | Text Only | Print | Product List | Glossary On
Versions: 1 2 3 4 5 6 7 8 9 10 11 12 13 14
000
FTAK31 PAFA 252331
TAFAOR
TAF
PAOR 252331Z 2600/2624 VRB06KT P6SM BKN060 BKN120
      TEMPO 2600/2604 32010G18KT
     FM260400 31006KT P6SM VCSH BKN060 OVC100=

USA.gov is the U.S. government's official web portal to all federal, state and local government web resources and services.